sensor_id;sensor_type;location;lat;lon;timestamp;P1;durP1;ratioP1;P2;durP2;ratioP2
11090;SDS011;5599;52.210;21.046;2023-02-04T00:01:56;10.13;;;7.80;;
11090;SDS011;5599;52.210;21.046;2023-02-04T00:04:27;7.80;;;6.00;;
11090;SDS011;5599;52.210;21.046;2023-02-04T00:06:56;9.23;;;7.33;;
11090;SDS011;5599;52.210;21.046;2023-02-04T00:09:26;10.13;;;7.33;;
11090;SDS011;5599;52.210;21.046;2023-02-04T00:11:55;8.87;;;7.40;;
11090;SDS011;5599;52.210;21.046;2023-02-04T00:14:24;13.00;;;9.17;;
11090;SDS011;5599;52.210;21.046;2023-02-04T00:16:53;10.33;;;6.47;;
11090;SDS011;5599;52.210;21.046;2023-02-04T00:19:23;9.17;;;6.40;;
11090;SDS011;5599;52.210;21.046;2023-02-04T00:21:53;12.73;;;9.60;;
11090;SDS011;5599;52.210;21.046;2023-02-04T00:24:22;8.67;;;7.37;;
11090;SDS011;5599;52.210;21.046;2023-02-04T00:26:52;7.87;;;6.43;;
11090;SDS011;5599;52.210;21.046;2023-02-04T00:29:21;8.17;;;6.80;;
11090;SDS011;5599;52.210;21.046;2023-02-04T00:31:51;8.53;;;7.07;;
11090;SDS011;5599;52.210;21.046;2023-02-04T00:34:20;11.57;;;8.23;;
11090;SDS011;5599;52.210;21.046;2023-02-04T00:36:50;12.93;;;8.33;;
11090;SDS011;5599;52.210;21.046;2023-02-04T00:39:21;11.23;;;7.50;;
11090;SDS011;5599;52.210;21.046;2023-02-04T00:41:50;8.60;;;7.20;;
11090;SDS011;5599;52.210;21.046;2023-02-04T00:44:19;12.80;;;9.57;;
11090;SDS011;5599;52.210;21.046;2023-02-04T00:46:49;12.13;;;10.00;;
11090;SDS011;5599;52.210;21.046;2023-02-04T00:49:18;10.80;;;8.80;;
11090;SDS011;5599;52.210;21.046;2023-02-04T00:51:49;11.97;;;8.23;;
11090;SDS011;5599;52.210;21.046;2023-02-04T00:54:18;11.20;;;9.57;;
11090;SDS011;5599;52.210;21.046;2023-02-04T00:56:49;15.03;;;10.67;;
11090;SDS011;5599;52.210;21.046;2023-02-04T00:59:18;9.53;;;7.37;;
11090;SDS011;5599;52.210;21.046;2023-02-04T01:01:47;10.53;;;8.17;;
11090;SDS011;5599;52.210;21.046;2023-02-04T01:04:17;11.47;;;9.03;;
11090;SDS011;5599;52.210;21.046;2023-02-04T01:06:47;9.93;;;6.53;;
11090;SDS011;5599;52.210;21.046;2023-02-04T01:09:16;12.73;;;8.43;;
11090;SDS011;5599;52.210;21.046;2023-02-04T01:11:45;11.13;;;6.37;;
11090;SDS011;5599;52.210;21.046;2023-02-04T01:14:16;10.20;;;7.83;;
11090;SDS011;5599;52.210;21.046;2023-02-04T01:16:45;10.27;;;8.90;;
11090;SDS011;5599;52.210;21.046;2023-02-04T01:19:15;8.97;;;7.23;;
11090;SDS011;5599;52.210;21.046;2023-02-04T01:21:44;10.37;;;8.40;;
11090;SDS011;5599;52.210;21.046;2023-02-04T01:24:13;12.23;;;9.17;;
11090;SDS011;5599;52.210;21.046;2023-02-04T01:27:01;13.20;;;8.60;;
11090;SDS011;5599;52.210;21.046;2023-02-04T01:29:32;8.80;;;6.73;;
11090;SDS011;5599;52.210;21.046;2023-02-04T01:32:01;9.20;;;7.40;;
11090;SDS011;5599;52.210;21.046;2023-02-04T01:34:31;10.97;;;8.63;;
11090;SDS011;5599;52.210;21.046;2023-02-04T01:37:00;9.17;;;7.03;;
11090;SDS011;5599;52.210;21.046;2023-02-04T01:39:29;10.20;;;7.97;;
11090;SDS011;5599;52.210;21.046;2023-02-04T01:42:00;11.37;;;8.83;;
11090;SDS011;5599;52.210;21.046;2023-02-04T01:44:29;8.80;;;7.27;;
11090;SDS011;5599;52.210;21.046;2023-02-04T01:47:00;9.70;;;7.90;;
11090;SDS011;5599;52.210;21.046;2023-02-04T01:49:30;12.67;;;9.70;;
11090;SDS011;5599;52.210;21.046;2023-02-04T01:51:59;11.63;;;8.57;;
11090;SDS011;5599;52.210;21.046;2023-02-04T01:54:29;10.03;;;8.57;;
11090;SDS011;5599;52.210;21.046;2023-02-04T01:56:59;12.90;;;9.87;;
11090;SDS011;5599;52.210;21.046;2023-02-04T01:59:29;11.70;;;9.73;;
11090;SDS011;5599;52.210;21.046;2023-02-04T02:02:00;10.83;;;7.23;;
11090;SDS011;5599;52.210;21.046;2023-02-04T02:04:30;12.47;;;10.47;;
11090;SDS011;5599;52.210;21.046;2023-02-04T02:07:01;11.57;;;9.57;;
11090;SDS011;5599;52.210;21.046;2023-02-04T02:09:32;16.47;;;10.50;;
11090;SDS011;5599;52.210;21.046;2023-02-04T02:12:05;10.20;;;7.77;;
11090;SDS011;5599;52.210;21.046;2023-02-04T02:14:34;11.20;;;9.20;;
11090;SDS011;5599;52.210;21.046;2023-02-04T02:17:04;10.53;;;8.90;;
11090;SDS011;5599;52.210;21.046;2023-02-04T02:19:35;11.63;;;8.70;;
11090;SDS011;5599;52.210;21.046;2023-02-04T02:22:06;10.00;;;8.13;;
11090;SDS011;5599;52.210;21.046;2023-02-04T02:24:43;16.03;;;10.63;;
11090;SDS011;5599;52.210;21.046;2023-02-04T02:27:13;11.10;;;7.80;;
11090;SDS011;5599;52.210;21.046;2023-02-04T02:29:42;12.27;;;9.23;;
11090;SDS011;5599;52.210;21.046;2023-02-04T02:32:11;9.90;;;8.17;;
11090;SDS011;5599;52.210;21.046;2023-02-04T02:34:42;10.03;;;8.57;;
11090;SDS011;5599;52.210;21.046;2023-02-04T02:37:13;10.03;;;7.93;;
11090;SDS011;5599;52.210;21.046;2023-02-04T02:39:44;15.07;;;9.53;;
11090;SDS011;5599;52.210;21.046;2023-02-04T02:42:14;6.70;;;6.00;;
11090;SDS011;5599;52.210;21.046;2023-02-04T02:44:46;13.60;;;8.90;;
11090;SDS011;5599;52.210;21.046;2023-02-04T02:47:17;9.83;;;7.60;;
11090;SDS011;5599;52.210;21.046;2023-02-04T02:49:50;10.40;;;7.90;;
11090;SDS011;5599;52.210;21.046;2023-02-04T02:52:20;9.67;;;8.10;;
11090;SDS011;5599;52.210;21.046;2023-02-04T02:54:51;9.13;;;8.03;;
11090;SDS011;5599;52.210;21.046;2023-02-04T02:57:21;10.70;;;6.87;;
11090;SDS011;5599;52.210;21.046;2023-02-04T02:59:51;10.80;;;6.43;;
11090;SDS011;5599;52.210;21.046;2023-02-04T03:02:21;9.07;;;5.83;;
11090;SDS011;5599;52.210;21.046;2023-02-04T03:04:52;4.43;;;3.90;;
11090;SDS011;5599;52.210;21.046;2023-02-04T03:07:27;6.93;;;4.87;;
11090;SDS011;5599;52.210;21.046;2023-02-04T03:09:58;7.10;;;6.30;;
11090;SDS011;5599;52.210;21.046;2023-02-04T03:12:30;10.67;;;6.50;;
11090;SDS011;5599;52.210;21.046;2023-02-04T03:15:00;8.17;;;5.97;;
11090;SDS011;5599;52.210;21.046;2023-02-04T03:17:30;10.97;;;5.73;;
11090;SDS011;5599;52.210;21.046;2023-02-04T03:20:00;7.20;;;5.27;;
11090;SDS011;5599;52.210;21.046;2023-02-04T03:22:30;8.07;;;5.93;;
11090;SDS011;5599;52.210;21.046;2023-02-04T03:25:01;6.70;;;5.60;;
11090;SDS011;5599;52.210;21.046;2023-02-04T03:27:30;7.03;;;5.77;;
11090;SDS011;5599;52.210;21.046;2023-02-04T03:30:00;9.23;;;5.70;;
11090;SDS011;5599;52.210;21.046;2023-02-04T03:32:29;6.00;;;5.40;;
11090;SDS011;5599;52.210;21.046;2023-02-04T03:34:59;8.20;;;6.20;;
11090;SDS011;5599;52.210;21.046;2023-02-04T03:37:28;8.20;;;5.47;;
11090;SDS011;5599;52.210;21.046;2023-02-04T03:39:57;7.23;;;5.30;;
11090;SDS011;5599;52.210;21.046;2023-02-04T03:42:28;6.67;;;5.77;;
11090;SDS011;5599;52.210;21.046;2023-02-04T03:44:57;9.57;;;5.50;;
11090;SDS011;5599;52.210;21.046;2023-02-04T03:47:26;6.33;;;5.20;;
11090;SDS011;5599;52.210;21.046;2023-02-04T03:49:55;7.00;;;4.97;;
11090;SDS011;5599;52.210;21.046;2023-02-04T03:52:25;8.60;;;6.00;;
11090;SDS011;5599;52.210;21.046;2023-02-04T03:54:54;8.70;;;6.07;;
11090;SDS011;5599;52.210;21.046;2023-02-04T03:57:23;9.23;;;6.23;;
11090;SDS011;5599;52.210;21.046;2023-02-04T03:59:54;7.90;;;5.70;;
11090;SDS011;5599;52.210;21.046;2023-02-04T04:02:23;9.07;;;6.20;;
11090;SDS011;5599;52.210;21.046;2023-02-04T04:04:52;9.07;;;5.77;;
11090;SDS011;5599;52.210;21.046;2023-02-04T04:07:22;7.87;;;6.00;;
11090;SDS011;5599;52.210;21.046;2023-02-04T04:09:51;7.90;;;5.70;;
11090;SDS011;5599;52.210;21.046;2023-02-04T04:12:20;7.97;;;5.20;;
11090;SDS011;5599;52.210;21.046;2023-02-04T04:14:49;7.43;;;5.60;;
11090;SDS011;5599;52.210;21.046;2023-02-04T04:17:20;7.93;;;5.67;;
11090;SDS011;5599;52.210;21.046;2023-02-04T04:19:49;6.13;;;4.90;;
11090;SDS011;5599;52.210;21.046;2023-02-04T04:22:19;8.90;;;5.67;;
11090;SDS011;5599;52.210;21.046;2023-02-04T04:24:48;6.17;;;5.10;;
11090;SDS011;5599;52.210;21.046;2023-02-04T04:27:17;8.00;;;5.70;;
11090;SDS011;5599;52.210;21.046;2023-02-04T04:29:46;6.70;;;5.53;;
11090;SDS011;5599;52.210;21.046;2023-02-04T04:32:15;7.20;;;5.47;;
11090;SDS011;5599;52.210;21.046;2023-02-04T04:34:46;7.57;;;5.57;;
11090;SDS011;5599;52.210;21.046;2023-02-04T04:37:15;8.90;;;6.10;;
11090;SDS011;5599;52.210;21.046;2023-02-04T04:39:45;6.20;;;5.40;;
11090;SDS011;5599;52.210;21.046;2023-02-04T04:42:14;7.87;;;5.20;;
11090;SDS011;5599;52.210;21.046;2023-02-04T04:44:43;7.67;;;5.40;;
11090;SDS011;5599;52.210;21.046;2023-02-04T04:47:12;7.87;;;5.57;;
11090;SDS011;5599;52.210;21.046;2023-02-04T04:49:41;8.40;;;5.50;;
11090;SDS011;5599;52.210;21.046;2023-02-04T04:52:12;9.07;;;6.03;;
11090;SDS011;5599;52.210;21.046;2023-02-04T04:54:41;7.57;;;5.97;;
11090;SDS011;5599;52.210;21.046;2023-02-04T04:57:10;14.37;;;6.03;;
11090;SDS011;5599;52.210;21.046;2023-02-04T04:59:40;7.27;;;5.70;;
11090;SDS011;5599;52.210;21.046;2023-02-04T05:02:09;9.93;;;6.13;;
11090;SDS011;5599;52.210;21.046;2023-02-04T05:04:38;6.20;;;5.17;;
11090;SDS011;5599;52.210;21.046;2023-02-04T05:07:07;12.47;;;6.10;;
11090;SDS011;5599;52.210;21.046;2023-02-04T05:09:38;9.23;;;6.30;;
11090;SDS011;5599;52.210;21.046;2023-02-04T05:12:07;9.30;;;6.80;;
11090;SDS011;5599;52.210;21.046;2023-02-04T05:14:37;7.63;;;6.10;;
11090;SDS011;5599;52.210;21.046;2023-02-04T05:17:06;8.03;;;6.50;;
11090;SDS011;5599;52.210;21.046;2023-02-04T05:19:35;6.87;;;6.10;;
11090;SDS011;5599;52.210;21.046;2023-02-04T05:22:04;10.30;;;6.60;;
11090;SDS011;5599;52.210;21.046;2023-02-04T05:24:34;6.97;;;6.27;;
11090;SDS011;5599;52.210;21.046;2023-02-04T05:27:04;8.80;;;5.73;;
11090;SDS011;5599;52.210;21.046;2023-02-04T05:29:34;10.60;;;7.00;;
11090;SDS011;5599;52.210;21.046;2023-02-04T05:32:03;5.67;;;4.53;;
11090;SDS011;5599;52.210;21.046;2023-02-04T05:34:32;7.90;;;6.10;;
11090;SDS011;5599;52.210;21.046;2023-02-04T05:37:02;6.47;;;5.33;;
11090;SDS011;5599;52.210;21.046;2023-02-04T05:39:31;6.77;;;5.50;;
11090;SDS011;5599;52.210;21.046;2023-02-04T05:42:00;7.43;;;5.30;;
11090;SDS011;5599;52.210;21.046;2023-02-04T05:44:31;7.30;;;6.10;;
11090;SDS011;5599;52.210;21.046;2023-02-04T05:47:00;8.30;;;5.23;;
11090;SDS011;5599;52.210;21.046;2023-02-04T05:49:30;9.60;;;5.90;;
11090;SDS011;5599;52.210;21.046;2023-02-04T05:51:59;9.13;;;5.57;;
11090;SDS011;5599;52.210;21.046;2023-02-04T05:54:28;7.63;;;5.30;;
11090;SDS011;5599;52.210;21.046;2023-02-04T05:56:58;6.07;;;5.37;;
11090;SDS011;5599;52.210;21.046;2023-02-04T05:59:27;6.30;;;4.90;;
11090;SDS011;5599;52.210;21.046;2023-02-04T06:01:57;6.27;;;5.37;;
11090;SDS011;5599;52.210;21.046;2023-02-04T06:04:27;8.10;;;4.67;;
11090;SDS011;5599;52.210;21.046;2023-02-04T06:06:56;8.20;;;4.70;;
11090;SDS011;5599;52.210;21.046;2023-02-04T06:09:25;5.67;;;5.10;;
11090;SDS011;5599;52.210;21.046;2023-02-04T06:11:54;5.80;;;4.73;;
11090;SDS011;5599;52.210;21.046;2023-02-04T06:14:24;6.57;;;4.60;;
11090;SDS011;5599;52.210;21.046;2023-02-04T06:16:53;6.63;;;4.43;;
11090;SDS011;5599;52.210;21.046;2023-02-04T06:19:24;5.93;;;4.80;;
11090;SDS011;5599;52.210;21.046;2023-02-04T06:21:53;8.03;;;5.33;;
11090;SDS011;5599;52.210;21.046;2023-02-04T06:24:22;8.97;;;5.33;;
11090;SDS011;5599;52.210;21.046;2023-02-04T06:26:52;9.50;;;5.70;;
11090;SDS011;5599;52.210;21.046;2023-02-04T06:29:21;7.67;;;5.53;;
11090;SDS011;5599;52.210;21.046;2023-02-04T06:31:50;10.03;;;5.33;;
11090;SDS011;5599;52.210;21.046;2023-02-04T06:34:20;8.07;;;5.07;;
11090;SDS011;5599;52.210;21.046;2023-02-04T06:36:51;6.73;;;5.13;;
11090;SDS011;5599;52.210;21.046;2023-02-04T06:39:20;6.13;;;4.97;;
11090;SDS011;5599;52.210;21.046;2023-02-04T06:41:50;7.13;;;5.20;;
11090;SDS011;5599;52.210;21.046;2023-02-04T06:44:19;7.23;;;5.60;;
11090;SDS011;5599;52.210;21.046;2023-02-04T06:46:48;5.10;;;4.57;;
11090;SDS011;5599;52.210;21.046;2023-02-04T06:49:18;6.43;;;4.90;;
11090;SDS011;5599;52.210;21.046;2023-02-04T06:51:47;8.30;;;4.90;;
11090;SDS011;5599;52.210;21.046;2023-02-04T06:54:18;8.97;;;4.87;;
11090;SDS011;5599;52.210;21.046;2023-02-04T06:56:47;6.47;;;5.00;;
11090;SDS011;5599;52.210;21.046;2023-02-04T06:59:16;6.83;;;4.93;;
11090;SDS011;5599;52.210;21.046;2023-02-04T07:01:46;9.17;;;5.10;;
11090;SDS011;5599;52.210;21.046;2023-02-04T07:04:15;6.63;;;5.10;;
11090;SDS011;5599;52.210;21.046;2023-02-04T07:06:44;6.20;;;4.53;;
11090;SDS011;5599;52.210;21.046;2023-02-04T07:09:13;7.20;;;4.80;;
11090;SDS011;5599;52.210;21.046;2023-02-04T07:11:44;7.37;;;5.10;;
11090;SDS011;5599;52.210;21.046;2023-02-04T07:14:14;7.37;;;4.80;;
11090;SDS011;5599;52.210;21.046;2023-02-04T07:16:43;8.27;;;5.37;;
11090;SDS011;5599;52.210;21.046;2023-02-04T07:19:12;5.73;;;4.33;;
11090;SDS011;5599;52.210;21.046;2023-02-04T07:21:41;9.73;;;5.40;;
11090;SDS011;5599;52.210;21.046;2023-02-04T07:24:10;6.07;;;4.40;;
11090;SDS011;5599;52.210;21.046;2023-02-04T07:26:40;8.63;;;5.23;;
11090;SDS011;5599;52.210;21.046;2023-02-04T07:29:10;4.83;;;4.10;;
11090;SDS011;5599;52.210;21.046;2023-02-04T07:31:49;5.13;;;4.17;;
11090;SDS011;5599;52.210;21.046;2023-02-04T07:34:19;6.27;;;4.60;;
11090;SDS011;5599;52.210;21.046;2023-02-04T07:36:48;7.30;;;4.50;;
11090;SDS011;5599;52.210;21.046;2023-02-04T07:39:18;5.93;;;3.80;;
11090;SDS011;5599;52.210;21.046;2023-02-04T07:41:47;5.90;;;4.10;;
11090;SDS011;5599;52.210;21.046;2023-02-04T07:44:23;8.07;;;3.70;;
11090;SDS011;5599;52.210;21.046;2023-02-04T07:46:52;6.07;;;3.87;;
11090;SDS011;5599;52.210;21.046;2023-02-04T07:49:23;5.87;;;3.47;;
11090;SDS011;5599;52.210;21.046;2023-02-04T07:51:52;4.53;;;3.60;;
11090;SDS011;5599;52.210;21.046;2023-02-04T07:54:24;8.67;;;3.87;;
11090;SDS011;5599;52.210;21.046;2023-02-04T07:56:53;4.80;;;3.37;;
11090;SDS011;5599;52.210;21.046;2023-02-04T07:59:24;4.10;;;3.50;;
11090;SDS011;5599;52.210;21.046;2023-02-04T08:01:53;5.87;;;3.53;;
11090;SDS011;5599;52.210;21.046;2023-02-04T08:04:22;5.67;;;3.60;;
11090;SDS011;5599;52.210;21.046;2023-02-04T08:06:52;4.17;;;2.90;;
11090;SDS011;5599;52.210;21.046;2023-02-04T08:09:21;3.90;;;3.07;;
11090;SDS011;5599;52.210;21.046;2023-02-04T08:11:53;5.47;;;3.00;;
11090;SDS011;5599;52.210;21.046;2023-02-04T08:14:23;4.37;;;3.10;;
11090;SDS011;5599;52.210;21.046;2023-02-04T08:16:53;4.33;;;3.27;;
11090;SDS011;5599;52.210;21.046;2023-02-04T08:19:23;5.97;;;3.50;;
11090;SDS011;5599;52.210;21.046;2023-02-04T08:21:52;5.23;;;3.23;;
11090;SDS011;5599;52.210;21.046;2023-02-04T08:24:21;4.97;;;2.77;;
11090;SDS011;5599;52.210;21.046;2023-02-04T08:26:50;5.30;;;3.20;;
11090;SDS011;5599;52.210;21.046;2023-02-04T08:29:20;5.03;;;3.03;;
11090;SDS011;5599;52.210;21.046;2023-02-04T08:31:50;3.30;;;3.00;;
11090;SDS011;5599;52.210;21.046;2023-02-04T08:34:20;5.13;;;3.80;;
11090;SDS011;5599;52.210;21.046;2023-02-04T08:36:49;3.77;;;3.07;;
11090;SDS011;5599;52.210;21.046;2023-02-04T08:39:18;5.10;;;3.40;;
11090;SDS011;5599;52.210;21.046;2023-02-04T08:41:48;3.50;;;2.70;;
11090;SDS011;5599;52.210;21.046;2023-02-04T08:44:17;3.80;;;2.83;;
11090;SDS011;5599;52.210;21.046;2023-02-04T08:46:47;4.67;;;2.80;;
11090;SDS011;5599;52.210;21.046;2023-02-04T08:49:18;4.73;;;2.90;;
11090;SDS011;5599;52.210;21.046;2023-02-04T08:51:47;4.47;;;2.97;;
11090;SDS011;5599;52.210;21.046;2023-02-04T08:54:16;5.00;;;3.40;;
11090;SDS011;5599;52.210;21.046;2023-02-04T08:56:45;5.37;;;3.00;;
11090;SDS011;5599;52.210;21.046;2023-02-04T08:59:15;4.03;;;3.03;;
11090;SDS011;5599;52.210;21.046;2023-02-04T09:01:44;7.50;;;3.33;;
11090;SDS011;5599;52.210;21.046;2023-02-04T09:04:18;3.27;;;2.87;;
11090;SDS011;5599;52.210;21.046;2023-02-04T09:06:49;4.90;;;2.23;;
11090;SDS011;5599;52.210;21.046;2023-02-04T09:09:19;2.77;;;2.30;;
11090;SDS011;5599;52.210;21.046;2023-02-04T09:11:51;2.27;;;1.83;;
11090;SDS011;5599;52.210;21.046;2023-02-04T09:14:20;7.47;;;2.30;;
11090;SDS011;5599;52.210;21.046;2023-02-04T09:16:49;6.27;;;2.80;;
11090;SDS011;5599;52.210;21.046;2023-02-04T09:19:20;3.87;;;2.53;;
11090;SDS011;5599;52.210;21.046;2023-02-04T09:21:51;3.10;;;2.30;;
11090;SDS011;5599;52.210;21.046;2023-02-04T09:24:21;4.77;;;2.63;;
11090;SDS011;5599;52.210;21.046;2023-02-04T09:26:50;3.67;;;1.97;;
11090;SDS011;5599;52.210;21.046;2023-02-04T09:29:20;6.97;;;2.47;;
11090;SDS011;5599;52.210;21.046;2023-02-04T09:31:49;2.93;;;2.33;;
11090;SDS011;5599;52.210;21.046;2023-02-04T09:34:20;3.33;;;2.40;;
11090;SDS011;5599;52.210;21.046;2023-02-04T09:36:49;2.87;;;2.30;;
11090;SDS011;5599;52.210;21.046;2023-02-04T09:39:18;3.87;;;2.30;;
11090;SDS011;5599;52.210;21.046;2023-02-04T09:41:48;3.07;;;2.47;;
11090;SDS011;5599;52.210;21.046;2023-02-04T09:44:20;5.80;;;2.20;;
11090;SDS011;5599;52.210;21.046;2023-02-04T09:46:52;3.63;;;2.13;;
11090;SDS011;5599;52.210;21.046;2023-02-04T09:49:25;2.50;;;2.17;;
11090;SDS011;5599;52.210;21.046;2023-02-04T09:51:55;3.03;;;2.70;;
11090;SDS011;5599;52.210;21.046;2023-02-04T09:54:24;3.53;;;2.40;;
11090;SDS011;5599;52.210;21.046;2023-02-04T09:56:54;5.13;;;2.97;;
11090;SDS011;5599;52.210;21.046;2023-02-04T09:59:25;3.67;;;2.83;;
11090;SDS011;5599;52.210;21.046;2023-02-04T10:01:56;4.37;;;2.47;;
11090;SDS011;5599;52.210;21.046;2023-02-04T10:04:29;3.03;;;2.60;;
11090;SDS011;5599;52.210;21.046;2023-02-04T10:06:59;5.53;;;2.40;;
11090;SDS011;5599;52.210;21.046;2023-02-04T10:09:29;2.50;;;2.30;;
11090;SDS011;5599;52.210;21.046;2023-02-04T10:11:59;3.00;;;2.50;;
11090;SDS011;5599;52.210;21.046;2023-02-04T10:14:28;3.77;;;2.63;;
11090;SDS011;5599;52.210;21.046;2023-02-04T10:16:58;3.43;;;2.50;;
11090;SDS011;5599;52.210;21.046;2023-02-04T10:19:30;4.07;;;2.70;;
11090;SDS011;5599;52.210;21.046;2023-02-04T10:21:59;4.53;;;2.67;;
11090;SDS011;5599;52.210;21.046;2023-02-04T10:24:30;3.30;;;3.00;;
11090;SDS011;5599;52.210;21.046;2023-02-04T10:27:10;5.33;;;3.23;;
11090;SDS011;5599;52.210;21.046;2023-02-04T10:29:42;3.90;;;2.83;;
11090;SDS011;5599;52.210;21.046;2023-02-04T10:32:26;3.97;;;3.10;;
11090;SDS011;5599;52.210;21.046;2023-02-04T10:34:59;5.47;;;3.03;;
11090;SDS011;5599;52.210;21.046;2023-02-04T10:37:29;4.23;;;3.20;;
11090;SDS011;5599;52.210;21.046;2023-02-04T10:39:59;3.77;;;3.20;;
11090;SDS011;5599;52.210;21.046;2023-02-04T10:42:29;3.33;;;2.93;;
11090;SDS011;5599;52.210;21.046;2023-02-04T10:44:59;3.97;;;3.10;;
11090;SDS011;5599;52.210;21.046;2023-02-04T10:47:28;3.80;;;3.17;;
11090;SDS011;5599;52.210;21.046;2023-02-04T10:50:00;3.93;;;3.20;;
11090;SDS011;5599;52.210;21.046;2023-02-04T10:52:33;4.63;;;3.00;;
11090;SDS011;5599;52.210;21.046;2023-02-04T10:55:04;3.87;;;2.80;;
11090;SDS011;5599;52.210;21.046;2023-02-04T10:57:37;3.17;;;2.87;;
11090;SDS011;5599;52.210;21.046;2023-02-04T11:00:13;4.30;;;2.80;;
11090;SDS011;5599;52.210;21.046;2023-02-04T11:02:46;4.53;;;2.73;;
11090;SDS011;5599;52.210;21.046;2023-02-04T11:05:29;5.07;;;3.33;;
11090;SDS011;5599;52.210;21.046;2023-02-04T11:08:00;4.00;;;3.10;;
11090;SDS011;5599;52.210;21.046;2023-02-04T11:10:31;2.97;;;2.70;;
11090;SDS011;5599;52.210;21.046;2023-02-04T11:13:02;3.77;;;2.60;;
11090;SDS011;5599;52.210;21.046;2023-02-04T11:15:37;6.70;;;2.90;;
11090;SDS011;5599;52.210;21.046;2023-02-04T11:18:11;3.30;;;2.80;;
11090;SDS011;5599;52.210;21.046;2023-02-04T11:20:54;3.97;;;2.87;;
11090;SDS011;5599;52.210;21.046;2023-02-04T11:23:31;3.33;;;2.80;;
11090;SDS011;5599;52.210;21.046;2023-02-04T11:26:04;3.00;;;2.63;;
11090;SDS011;5599;52.210;21.046;2023-02-04T11:28:44;3.33;;;2.87;;
11090;SDS011;5599;52.210;21.046;2023-02-04T11:34:11;2.87;;;2.63;;
11090;SDS011;5599;52.210;21.046;2023-02-04T11:37:12;4.37;;;2.77;;
11090;SDS011;5599;52.210;21.046;2023-02-04T11:40:11;4.40;;;2.97;;
11090;SDS011;5599;52.210;21.046;2023-02-04T11:42:55;3.10;;;2.80;;
11090;SDS011;5599;52.210;21.046;2023-02-04T11:45:26;3.70;;;2.80;;
11090;SDS011;5599;52.210;21.046;2023-02-04T11:47:59;6.67;;;3.07;;
11090;SDS011;5599;52.210;21.046;2023-02-04T11:50:31;3.37;;;3.00;;
11090;SDS011;5599;52.210;21.046;2023-02-04T11:53:07;5.30;;;2.83;;
11090;SDS011;5599;52.210;21.046;2023-02-04T11:55:42;4.40;;;3.30;;
11090;SDS011;5599;52.210;21.046;2023-02-04T11:58:14;4.50;;;2.83;;
11090;SDS011;5599;52.210;21.046;2023-02-04T12:00:45;3.90;;;2.93;;
11090;SDS011;5599;52.210;21.046;2023-02-04T12:03:21;4.63;;;3.40;;
11090;SDS011;5599;52.210;21.046;2023-02-04T12:05:52;5.23;;;3.60;;
11090;SDS011;5599;52.210;21.046;2023-02-04T12:08:31;4.80;;;3.40;;
11090;SDS011;5599;52.210;21.046;2023-02-04T12:11:04;4.83;;;3.47;;
11090;SDS011;5599;52.210;21.046;2023-02-04T12:13:44;3.83;;;3.43;;
11090;SDS011;5599;52.210;21.046;2023-02-04T12:16:15;4.60;;;3.43;;
11090;SDS011;5599;52.210;21.046;2023-02-04T12:18:45;3.87;;;3.10;;
11090;SDS011;5599;52.210;21.046;2023-02-04T12:21:15;5.47;;;3.33;;
11090;SDS011;5599;52.210;21.046;2023-02-04T12:23:46;4.33;;;3.23;;
11090;SDS011;5599;52.210;21.046;2023-02-04T12:26:16;4.10;;;3.20;;
11090;SDS011;5599;52.210;21.046;2023-02-04T12:28:45;3.80;;;3.13;;
11090;SDS011;5599;52.210;21.046;2023-02-04T12:31:14;3.77;;;2.97;;
11090;SDS011;5599;52.210;21.046;2023-02-04T12:33:44;5.80;;;3.60;;
11090;SDS011;5599;52.210;21.046;2023-02-04T12:36:13;5.30;;;3.30;;
11090;SDS011;5599;52.210;21.046;2023-02-04T12:38:42;5.00;;;3.40;;
11090;SDS011;5599;52.210;21.046;2023-02-04T12:41:13;3.50;;;3.20;;
11090;SDS011;5599;52.210;21.046;2023-02-04T12:43:42;4.10;;;3.13;;
11090;SDS011;5599;52.210;21.046;2023-02-04T12:46:11;4.13;;;3.53;;
11090;SDS011;5599;52.210;21.046;2023-02-04T12:48:41;4.43;;;3.30;;
11090;SDS011;5599;52.210;21.046;2023-02-04T12:51:10;4.27;;;3.37;;
11090;SDS011;5599;52.210;21.046;2023-02-04T12:53:39;5.23;;;3.43;;
11090;SDS011;5599;52.210;21.046;2023-02-04T12:56:09;4.70;;;3.10;;
11090;SDS011;5599;52.210;21.046;2023-02-04T12:58:39;3.83;;;3.33;;
11090;SDS011;5599;52.210;21.046;2023-02-04T13:01:09;4.33;;;3.23;;
11090;SDS011;5599;52.210;21.046;2023-02-04T13:03:38;4.63;;;3.20;;
11090;SDS011;5599;52.210;21.046;2023-02-04T13:06:08;5.00;;;3.53;;
11090;SDS011;5599;52.210;21.046;2023-02-04T13:08:37;5.27;;;3.40;;
11090;SDS011;5599;52.210;21.046;2023-02-04T13:11:06;5.20;;;3.17;;
11090;SDS011;5599;52.210;21.046;2023-02-04T13:13:36;3.93;;;3.20;;
11090;SDS011;5599;52.210;21.046;2023-02-04T13:16:06;3.87;;;3.20;;
11090;SDS011;5599;52.210;21.046;2023-02-04T13:18:36;4.77;;;3.27;;
11090;SDS011;5599;52.210;21.046;2023-02-04T13:21:05;5.80;;;3.07;;
11090;SDS011;5599;52.210;21.046;2023-02-04T13:23:34;3.73;;;3.00;;
11090;SDS011;5599;52.210;21.046;2023-02-04T13:26:04;4.33;;;3.00;;
11090;SDS011;5599;52.210;21.046;2023-02-04T13:28:35;3.67;;;3.03;;
11090;SDS011;5599;52.210;21.046;2023-02-04T13:31:04;4.27;;;3.10;;
11090;SDS011;5599;52.210;21.046;2023-02-04T13:33:35;5.80;;;2.90;;
11090;SDS011;5599;52.210;21.046;2023-02-04T13:36:05;4.40;;;2.80;;
11090;SDS011;5599;52.210;21.046;2023-02-04T13:38:34;3.77;;;2.70;;
11090;SDS011;5599;52.210;21.046;2023-02-04T13:41:04;3.93;;;2.70;;
11090;SDS011;5599;52.210;21.046;2023-02-04T13:43:33;3.87;;;2.87;;
11090;SDS011;5599;52.210;21.046;2023-02-04T13:46:02;2.63;;;2.40;;
11090;SDS011;5599;52.210;21.046;2023-02-04T13:48:34;4.43;;;3.70;;
11090;SDS011;5599;52.210;21.046;2023-02-04T13:51:03;3.50;;;2.93;;
11090;SDS011;5599;52.210;21.046;2023-02-04T13:53:33;2.83;;;2.10;;
11090;SDS011;5599;52.210;21.046;2023-02-04T13:56:02;2.33;;;2.13;;
11090;SDS011;5599;52.210;21.046;2023-02-04T13:58:32;2.20;;;2.00;;
11090;SDS011;5599;52.210;21.046;2023-02-04T14:01:01;2.80;;;2.17;;
11090;SDS011;5599;52.210;21.046;2023-02-04T14:03:31;3.03;;;2.67;;
11090;SDS011;5599;52.210;21.046;2023-02-04T14:06:02;3.80;;;2.30;;
11090;SDS011;5599;52.210;21.046;2023-02-04T14:08:32;4.17;;;2.50;;
11090;SDS011;5599;52.210;21.046;2023-02-04T14:11:01;4.53;;;2.60;;
11090;SDS011;5599;52.210;21.046;2023-02-04T14:13:31;3.03;;;2.37;;
11090;SDS011;5599;52.210;21.046;2023-02-04T14:16:01;4.23;;;2.47;;
11090;SDS011;5599;52.210;21.046;2023-02-04T14:18:31;4.47;;;2.43;;
11090;SDS011;5599;52.210;21.046;2023-02-04T14:21:03;4.13;;;2.70;;
11090;SDS011;5599;52.210;21.046;2023-02-04T14:23:33;4.80;;;2.63;;
11090;SDS011;5599;52.210;21.046;2023-02-04T14:26:02;5.00;;;2.50;;
11090;SDS011;5599;52.210;21.046;2023-02-04T14:28:32;2.90;;;2.43;;
11090;SDS011;5599;52.210;21.046;2023-02-04T14:31:01;2.63;;;2.37;;
11090;SDS011;5599;52.210;21.046;2023-02-04T14:33:31;2.80;;;2.60;;
11090;SDS011;5599;52.210;21.046;2023-02-04T14:36:00;3.30;;;2.03;;
11090;SDS011;5599;52.210;21.046;2023-02-04T14:38:32;4.90;;;2.50;;
11090;SDS011;5599;52.210;21.046;2023-02-04T14:41:02;4.30;;;2.33;;
11090;SDS011;5599;52.210;21.046;2023-02-04T14:43:32;3.00;;;2.40;;
11090;SDS011;5599;52.210;21.046;2023-02-04T14:46:03;2.53;;;2.30;;
11090;SDS011;5599;52.210;21.046;2023-02-04T14:48:33;2.73;;;2.17;;
11090;SDS011;5599;52.210;21.046;2023-02-04T14:51:04;3.90;;;2.90;;
11090;SDS011;5599;52.210;21.046;2023-02-04T14:53:33;3.10;;;2.60;;
11090;SDS011;5599;52.210;21.046;2023-02-04T14:56:03;4.23;;;3.20;;
11090;SDS011;5599;52.210;21.046;2023-02-04T14:58:33;5.57;;;3.03;;
11090;SDS011;5599;52.210;21.046;2023-02-04T15:01:03;5.53;;;2.50;;
11090;SDS011;5599;52.210;21.046;2023-02-04T15:03:33;3.20;;;2.20;;
11090;SDS011;5599;52.210;21.046;2023-02-04T15:06:04;2.50;;;2.30;;
11090;SDS011;5599;52.210;21.046;2023-02-04T15:08:34;5.03;;;2.70;;